createdAt,value
2019-01-27T00:05:00.194Z,1.47
2019-01-27T00:08:24.423Z,1.30
2019-01-27T00:11:48.387Z,1.67
2019-01-27T00:19:02.384Z,3.00
2019-01-27T00:22:26.339Z,3.07
2019-01-27T00:25:50.401Z,3.30
2019-01-27T00:29:14.359Z,2.87
2019-01-27T00:32:38.321Z,2.83
2019-01-27T00:36:02.604Z,3.03
2019-01-27T00:39:26.565Z,2.97
2019-01-27T00:42:50.874Z,2.13
2019-01-27T00:46:33.880Z,2.13
2019-01-27T00:49:50.778Z,2.37
2019-01-27T00:53:14.741Z,2.63
2019-01-27T00:56:38.746Z,1.87
2019-01-27T01:00:02.815Z,2.15
2019-01-27T01:03:27.055Z,1.93
2019-01-27T01:06:51.110Z,2.00
2019-01-27T01:10:34.401Z,1.53
2019-01-27T01:13:58.618Z,2.00
2019-01-27T01:17:22.850Z,1.80
2019-01-27T01:20:47.244Z,1.57
2019-01-27T01:24:11.373Z,1.80
2019-01-27T01:27:35.341Z,1.30
2019-01-27T01:30:59.562Z,1.53
2019-01-27T01:34:23.518Z,0.90
2019-01-27T01:37:47.772Z,0.87
2019-01-27T01:40:52.660Z,1.10
2019-01-27T01:44:16.667Z,1.03
2019-01-27T01:47:40.633Z,0.80
2019-01-27T01:50:57.625Z,0.70
2019-01-27T01:54:21.579Z,1.10
2019-01-27T01:58:04.662Z,3.77
2019-01-27T02:04:59.801Z,1.60
2019-01-27T02:08:24.021Z,1.67
2019-01-27T02:11:47.991Z,1.23
2019-01-27T02:15:33.086Z,1.10
2019-01-27T02:18:57.049Z,1.00
2019-01-27T02:22:21.023Z,0.93
2019-01-27T02:25:44.985Z,0.90
2019-01-27T02:29:08.964Z,1.10
2019-01-27T02:39:54.487Z,0.80
2019-01-27T02:43:37.498Z,0.80
2019-01-27T02:47:01.992Z,0.90
2019-01-27T02:50:22.743Z,1.30
2019-01-27T02:53:46.720Z,0.73
2019-01-27T03:04:30.563Z,0.67
2019-01-27T03:07:54.537Z,0.80
2019-01-27T03:11:18.836Z,0.70
2019-01-27T03:14:42.813Z,0.83
2019-01-27T03:21:56.703Z,0.70
2019-01-27T03:25:20.976Z,0.90
2019-01-27T03:28:45.024Z,0.80
2019-01-27T03:32:09.016Z,0.60
2019-01-27T03:35:32.978Z,0.70
2019-01-27T03:38:56.965Z,0.93
2019-01-27T03:49:46.715Z,1.07
2019-01-27T03:53:10.696Z,1.00
2019-01-27T03:56:34.697Z,0.70
2019-01-27T03:59:58.706Z,0.50
2019-01-27T04:03:22.684Z,0.93
2019-01-27T04:06:46.932Z,0.70
2019-01-27T04:10:30.336Z,0.70
2019-01-27T04:13:34.949Z,0.80
2019-01-27T04:16:59.030Z,0.90
2019-01-27T04:24:13.451Z,0.90
2019-01-27T04:27:37.890Z,0.90
2019-01-27T04:31:01.901Z,0.70
2019-01-27T04:34:26.070Z,1.00
2019-01-27T04:37:50.282Z,0.90
2019-01-27T04:41:14.256Z,0.63
2019-01-27T04:44:38.492Z,0.90
2019-01-27T04:52:04.753Z,1.00
2019-01-27T04:55:28.737Z,1.47
2019-01-27T04:58:52.706Z,1.00
2019-01-27T07:44:30.520Z,9.50
2019-01-27T07:47:52.031Z,6.53
2019-01-27T07:51:35.282Z,2.20
2019-01-27T07:55:21.302Z,2.13
2019-01-27T07:59:04.531Z,1.60
2019-01-27T08:02:47.522Z,1.30
2019-01-27T08:06:30.783Z,1.73
2019-01-27T08:13:48.795Z,1.37
2019-01-27T08:17:31.804Z,1.13
2019-01-27T08:21:14.797Z,1.37
2019-01-27T08:28:33.838Z,1.80
2019-01-27T08:32:17.503Z,1.83
2019-01-27T08:36:00.511Z,2.10
2019-01-27T08:39:43.757Z,1.67
2019-01-27T08:50:15.935Z,2.20
2019-01-27T08:57:22.824Z,1.20
2019-01-27T09:04:36.549Z,0.67
2019-01-27T09:11:54.645Z,0.57
2019-01-27T09:15:37.711Z,0.88
2019-01-27T09:26:40.381Z,0.70
2019-01-27T09:30:44.439Z,0.87
2019-01-27T09:34:27.504Z,1.03
2019-01-27T09:38:10.757Z,1.67
2019-01-27T09:41:53.960Z,2.77
2019-01-27T09:45:36.984Z,2.22
2019-01-27T09:48:56.209Z,2.47
2019-01-27T09:52:39.285Z,1.60
2019-01-27T10:00:07.213Z,0.80
2019-01-27T10:07:21.341Z,0.37
2019-01-27T10:11:04.356Z,0.50
2019-01-27T10:14:47.616Z,0.47
2019-01-27T10:22:05.541Z,0.23
2019-01-27T10:25:29.304Z,0.20
2019-01-27T10:29:12.535Z,0.50
2019-01-27T10:32:55.593Z,0.27
2019-01-27T10:36:38.667Z,0.50
2019-01-27T10:40:21.911Z,0.40
2019-01-27T10:44:05.000Z,2.10
2019-01-27T10:51:25.797Z,0.40
2019-01-27T10:56:26.236Z,0.20
2019-01-27T11:00:09.269Z,0.40
2019-01-27T14:47:42.568Z,0.40
2019-01-27T14:50:50.590Z,0.30
2019-01-27T14:53:58.444Z,0.40
2019-01-27T14:57:06.116Z,0.40
2019-01-27T15:00:24.162Z,0.70
2019-01-27T15:03:32.410Z,0.70
2019-01-27T15:06:40.293Z,0.60
2019-01-27T15:09:47.953Z,1.43
2019-01-27T15:12:56.006Z,0.33
2019-01-27T15:16:03.616Z,0.47
2019-01-27T15:19:11.242Z,0.30
2019-01-27T15:22:19.091Z,1.13
2019-01-27T15:25:26.701Z,0.37
2019-01-27T15:28:35.149Z,0.20
2019-01-27T15:31:42.850Z,0.30
2019-01-27T15:34:50.717Z,0.40
2019-01-27T15:37:58.482Z,0.53
2019-01-27T15:41:06.073Z,0.30
2019-01-27T15:44:13.647Z,0.47
2019-01-27T15:47:21.406Z,0.60
2019-01-27T15:50:30.662Z,0.70
2019-01-27T15:53:38.202Z,0.50
2019-01-27T15:56:46.046Z,0.30
2019-01-27T15:59:53.648Z,0.40
2019-01-27T16:03:01.137Z,0.23
2019-01-27T16:06:08.803Z,0.60
2019-01-27T16:09:16.659Z,0.43
2019-01-27T16:12:24.558Z,0.50
2019-01-27T16:15:33.193Z,0.60
2019-01-27T16:18:41.691Z,0.33
2019-01-27T16:21:49.616Z,0.47
2019-01-27T16:24:57.605Z,0.67
2019-01-27T16:28:05.872Z,0.80
2019-01-27T16:35:26.142Z,1.00
2019-01-27T16:38:33.762Z,0.80
2019-01-27T16:48:19.101Z,1.20
2019-01-27T16:51:26.835Z,1.10
2019-01-27T16:54:34.549Z,0.70
2019-01-27T16:57:42.079Z,0.40
2019-01-27T17:00:49.717Z,0.70
2019-01-27T17:03:57.271Z,0.70
2019-01-27T17:07:04.992Z,0.77
2019-01-27T17:10:13.907Z,0.60
2019-01-27T17:13:21.822Z,1.00
2019-01-27T17:16:30.226Z,1.17
2019-01-27T17:19:38.899Z,1.27
2019-01-27T17:22:46.980Z,1.90
2019-01-27T17:25:54.874Z,1.50
2019-01-27T17:29:02.463Z,1.00
2019-01-27T17:32:10.358Z,0.77
2019-01-27T17:35:21.162Z,1.30
2019-01-27T17:38:28.747Z,3.20
2019-01-27T17:41:37.551Z,2.77
2019-01-27T17:44:44.995Z,1.93
2019-01-27T17:47:53.079Z,1.67
2019-01-27T17:51:01.491Z,1.77
2019-01-27T17:54:09.611Z,1.70
2019-01-27T17:57:36.854Z,1.10
2019-01-27T18:01:16.105Z,0.70
2019-01-27T18:04:42.248Z,1.30
2019-01-27T18:08:02.067Z,1.10
2019-01-27T18:11:21.656Z,0.40
2019-01-27T18:14:32.315Z,0.93
2019-01-27T18:17:39.819Z,1.20
2019-01-27T18:20:47.669Z,0.80
2019-01-27T18:23:55.419Z,0.80
2019-01-27T18:27:02.954Z,0.90
2019-01-27T18:30:16.267Z,1.60
2019-01-27T18:33:23.710Z,1.87
2019-01-27T18:36:31.369Z,0.90
2019-01-27T18:39:39.566Z,1.33
2019-01-27T18:42:50.296Z,1.10
2019-01-27T18:45:58.150Z,1.43
2019-01-27T18:49:05.852Z,1.23
2019-01-27T18:52:13.411Z,1.30
2019-01-27T18:55:28.292Z,1.27
2019-01-27T18:58:52.475Z,1.10
2019-01-27T19:02:26.412Z,1.00
2019-01-27T19:05:40.007Z,1.37
2019-01-27T19:09:10.217Z,3.30
2019-01-27T19:12:28.377Z,3.27
2019-01-27T19:16:01.799Z,3.67
2019-01-27T19:19:29.618Z,4.57
2019-01-27T19:22:50.461Z,4.30
2019-01-27T19:26:09.900Z,4.63
2019-01-27T19:29:46.302Z,2.17
2019-01-27T19:33:15.803Z,1.90
2019-01-27T19:36:46.813Z,2.17
2019-01-27T19:40:15.015Z,1.60
2019-01-27T19:43:48.208Z,1.00
2019-01-27T19:47:18.030Z,1.30
2019-01-27T19:50:44.346Z,0.70
2019-01-27T19:53:57.864Z,0.70
2019-01-27T19:57:13.053Z,0.83
2019-01-27T20:00:40.230Z,0.73
2019-01-27T20:03:57.415Z,0.50
2019-01-27T20:07:24.640Z,0.60
2019-01-27T20:11:07.335Z,0.60
2019-01-27T20:14:31.379Z,0.80
2019-01-27T20:17:49.786Z,0.53
2019-01-27T20:21:09.027Z,0.50
2019-01-27T20:24:31.924Z,1.00
2019-01-27T20:27:47.784Z,0.70
2019-01-27T20:31:17.694Z,1.00
2019-01-27T20:35:00.446Z,1.33
2019-01-27T20:38:34.120Z,1.07
2019-01-27T20:42:04.520Z,1.40
2019-01-27T20:45:44.300Z,1.60
2019-01-27T20:49:17.452Z,4.10
2019-01-27T20:52:32.105Z,2.20
2019-01-27T20:55:47.875Z,2.07
2019-01-27T20:59:12.778Z,0.90
2019-01-27T21:02:32.363Z,1.20
2019-01-27T21:06:02.661Z,1.90
2019-01-27T21:09:24.791Z,1.43
2019-01-27T21:12:51.020Z,1.23
2019-01-27T21:16:06.419Z,0.90
2019-01-27T21:19:22.912Z,0.80
2019-01-27T21:22:31.385Z,0.90
2019-01-27T21:25:39.244Z,0.80
2019-01-27T21:28:50.937Z,1.43
2019-01-27T21:31:58.580Z,0.87
2019-01-27T21:35:07.639Z,0.90
2019-01-27T21:38:15.670Z,0.80
2019-01-27T21:41:23.170Z,0.87
2019-01-27T21:44:32.343Z,1.30
2019-01-27T21:47:40.457Z,1.50
2019-01-27T21:50:48.414Z,1.30
2019-01-27T21:53:56.047Z,0.70
2019-01-27T21:57:03.783Z,0.70
2019-01-27T22:00:18.031Z,0.63
2019-01-27T22:03:25.388Z,0.50
2019-01-27T22:06:34.122Z,0.67
2019-01-27T22:09:41.784Z,0.77
2019-01-27T22:12:49.677Z,0.73
2019-01-27T22:15:57.070Z,0.90
2019-01-27T22:19:04.932Z,0.90
2019-01-27T22:22:12.598Z,0.70
2019-01-27T22:25:21.067Z,1.10
2019-01-27T22:28:29.129Z,0.80
2019-01-27T22:31:37.028Z,0.80
2019-01-27T22:34:44.757Z,1.23
2019-01-27T22:37:52.535Z,0.37
2019-01-27T22:41:00.266Z,0.60
2019-01-27T22:44:07.977Z,0.97
2019-01-27T22:47:15.457Z,0.37
2019-01-27T22:50:22.989Z,1.20
2019-01-27T22:53:30.358Z,0.47
2019-01-27T22:56:37.922Z,0.30
2019-01-27T22:59:45.432Z,0.50
2019-01-27T23:02:52.938Z,0.20
2019-01-27T23:06:00.928Z,0.40
2019-01-27T23:09:14.681Z,0.30
2019-01-27T23:12:22.155Z,0.30
2019-01-27T23:15:29.636Z,0.40
2019-01-27T23:18:37.527Z,0.30
2019-01-27T23:21:45.257Z,0.10
2019-01-27T23:24:52.674Z,0.40
2019-01-27T23:28:00.246Z,0.80
2019-01-27T23:31:07.634Z,0.57
2019-01-27T23:34:15.241Z,1.17
2019-01-27T23:37:22.680Z,0.80
2019-01-27T23:40:30.885Z,0.40
2019-01-27T23:43:38.437Z,0.40
2019-01-27T23:46:51.215Z,0.20
2019-01-27T23:49:58.658Z,0.23
2019-01-27T23:53:06.192Z,0.20
2019-01-27T23:56:13.562Z,0.20
2019-01-27T23:59:22.739Z,0.40
